Time;durP1;ratioP1;P1;durP2;ratioP2;P2;SDS_P1;SDS_P2;PMS_P1;PMS_P2;Temp;Humidity;BMP_temperature;BMP_pressure;BME280_temperature;BME280_humidity;BME280_pressure;Samples;Min_cycle;Max_cycle;Signal;HPM_P1;HPM_P2
2022/08/04 00:01:32;;;;;;;3.97;2.72;;;;;;;23.30;50.92;98866.03;5179532;28;20431;-71
2022/08/04 00:04:30;;;;;;;7.10;3.08;;;;;;;23.16;51.37;98858.09;5181413;28;20056;-72
2022/08/04 00:07:42;;;;;;;3.72;2.88;;;;;;;23.18;50.99;98857.91;5182758;28;20136;-71
2022/08/04 00:10:35;;;;;;;3.70;2.92;;;;;;;23.11;50.97;98866.09;5183926;28;20042;-70
2022/08/04 00:13:30;;;;;;;4.05;2.50;;;;;;;23.23;50.60;98858.03;5183695;28;20116;-71
2022/08/04 00:16:22;;;;;;;4.57;2.53;;;;;;;23.10;51.19;98850.09;5184092;28;20539;-71
2022/08/04 00:19:30;;;;;;;2.92;2.63;;;;;;;23.09;50.87;98862.78;5178859;28;20046;-71
2022/08/04 00:22:25;;;;;;;5.93;2.90;;;;;;;23.19;51.75;98856.84;5182953;28;20107;-71
2022/08/04 00:25:15;;;;;;;6.13;2.45;;;;;;;23.05;50.72;98866.19;5183157;28;20061;-71
2022/08/04 00:28:05;;;;;;;8.38;2.75;;;;;;;22.99;51.36;98857.09;5182441;28;20540;-72
2022/08/04 00:30:56;;;;;;;5.30;2.53;;;;;;;23.01;51.47;98860.38;5183274;28;20164;-71
2022/08/04 00:33:47;;;;;;;6.32;2.83;;;;;;;22.97;51.88;98870.81;5168744;28;20076;-71
2022/08/04 00:36:39;;;;;;;4.68;2.70;;;;;;;23.01;52.16;98863.09;5183054;28;20050;-71
2022/08/04 00:39:30;;;;;;;3.35;2.80;;;;;;;22.89;51.91;98859.47;5181271;28;20038;-72
2022/08/04 00:42:41;;;;;;;3.25;2.60;;;;;;;22.89;51.84;98851.38;5181703;28;20054;-71
2022/08/04 00:46:03;;;;;;;6.32;2.63;;;;;;;23.10;50.93;98850.09;5179194;28;20057;-71
2022/08/04 00:49:26;;;;;;;4.28;2.13;;;;;;;23.28;49.91;98847.34;5181571;28;20052;-71
2022/08/04 00:53:00;;;;;;;3.33;2.40;;;;;;;23.56;48.50;98852.13;5182818;28;20073;-71
2022/08/04 00:56:35;;;;;;;2.35;2.15;;;;;;;23.68;48.50;98850.31;5179059;28;20109;-71
2022/08/04 00:59:25;;;;;;;;;;;;;;;23.63;49.15;98857.44;5182407;28;20054;-71
2022/08/04 01:02:38;;;;;;;4.65;2.90;;;;;;;23.71;50.47;98857.16;5179101;28;19926;-71
2022/08/04 01:05:38;;;;;;;13.50;3.03;;;;;;;23.23;54.58;98860.72;5182130;28;20053;-72
2022/08/04 01:09:08;;;;;;;5.13;2.92;;;;;;;23.09;54.11;98872.78;5183172;28;20541;-71
2022/08/04 01:12:31;;;;;;;3.80;3.05;;;;;;;22.93;54.80;98866.94;5181768;28;20068;-71
2022/08/04 01:15:35;;;;;;;11.82;3.22;;;;;;;23.06;54.18;98860.53;5181441;28;20089;-71
2022/08/04 01:19:05;;;;;;;4.55;2.85;;;;;;;22.99;53.40;98867.91;5178636;28;20061;-72
2022/08/04 01:22:23;;;;;;;4.55;2.80;;;;;;;23.02;51.02;98872.88;5181752;28;20045;-71
2022/08/04 01:26:01;;;;;;;5.03;2.78;;;;;;;23.13;51.98;98873.97;5181607;28;20049;-71
2022/08/04 01:29:13;;;;;;;3.67;2.67;;;;;;;23.06;52.36;98867.81;5180691;28;20064;-72
2022/08/04 01:32:17;;;;;;;4.10;2.67;;;;;;;23.06;52.29;98873.22;5175652;28;20489;-71
2022/08/04 01:35:17;;;;;;;;;;;;;;;22.96;52.03;98865.66;5179829;28;20050;-71
2022/08/04 01:38:27;;;;;;;2.58;2.38;;;;;;;22.84;52.39;98865.56;5181822;28;19943;-72
2022/08/04 01:41:18;;;;;;;5.10;2.65;;;;;;;22.64;52.93;98860.38;5180942;28;20068;-72
2022/08/04 01:44:23;;;;;;;4.50;2.55;;;;;;;22.73;51.95;98869.84;5176412;28;20178;-72
2022/08/04 01:47:16;;;;;;;3.33;2.42;;;;;;;22.71;51.68;98852.19;5177231;28;20053;-71
2022/08/04 01:50:09;;;;;;;4.38;2.70;;;;;;;22.71;52.47;98865.69;5179960;28;20557;-71
2022/08/04 01:53:02;;;;;;;5.78;2.30;;;;;;;22.59;52.41;98859.41;5181410;28;20052;-72
2022/08/04 01:55:55;;;;;;;2.88;2.47;;;;;;;22.55;51.97;98861.75;5175381;28;20176;-72
2022/08/04 01:58:46;;;;;;;3.00;2.50;;;;;;;22.42;52.96;98859.19;5181148;28;20519;-72
2022/08/04 02:01:36;;;;;;;2.50;2.30;;;;;;;22.46;52.24;98863.91;5193869;28;20351;-71
2022/08/04 02:04:26;;;;;;;2.78;2.42;;;;;;;22.59;51.28;98857.53;5181119;28;20065;-70
2022/08/04 02:07:22;;;;;;;3.13;2.35;;;;;;;22.64;51.26;98854.97;5181025;28;20678;-71
2022/08/04 02:10:26;;;;;;;3.10;2.42;;;;;;;22.47;51.19;98857.44;5181951;28;20089;-72
2022/08/04 02:13:29;;;;;;;5.43;2.50;;;;;;;22.22;51.35;98835.09;5180199;28;20183;-70
2022/08/04 02:16:24;;;;;;;3.55;2.63;;;;;;;22.28;51.61;98855.75;5180968;28;20052;-71
2022/08/04 02:19:23;;;;;;;3.03;2.45;;;;;;;22.20;52.47;98862.28;5180414;28;20511;-71
2022/08/04 02:22:17;;;;;;;4.55;2.53;;;;;;;22.22;52.83;98851.28;5179762;28;20128;-71
2022/08/04 02:25:09;;;;;;;3.65;2.53;;;;;;;22.14;52.12;98854.22;5180050;28;20448;-70
2022/08/04 02:28:28;;;;;;;3.88;2.80;;;;;;;22.11;53.33;98854.66;5178871;28;20049;-72
2022/08/04 02:31:31;;;;;;;3.78;2.72;;;;;;;22.16;53.69;98852.16;5185796;28;20057;-71
2022/08/04 02:34:28;;;;;;;3.67;3.17;;;;;;;22.15;53.89;98856.75;5180582;28;20115;-71
2022/08/04 02:37:19;;;;;;;4.22;2.85;;;;;;;22.29;53.80;98841.25;5181570;28;20542;-71
2022/08/04 02:40:11;;;;;;;4.38;2.90;;;;;;;22.04;54.29;98842.03;5180539;28;20049;-71
2022/08/04 02:43:03;;;;;;;2.97;2.50;;;;;;;22.09;53.75;98846.78;5180951;28;20061;-72
2022/08/04 02:45:56;;;;;;;3.28;2.60;;;;;;;21.76;54.12;98857.88;5177096;28;20094;-72
2022/08/04 02:48:49;;;;;;;4.33;2.57;;;;;;;21.84;55.24;98854.88;5180554;28;20050;-70
2022/08/04 02:51:42;;;;;;;4.25;2.60;;;;;;;21.87;55.00;98849.06;5177383;28;20062;-71
2022/08/04 02:54:37;;;;;;;2.67;2.28;;;;;;;21.82;54.81;98846.22;5181613;28;20447;-71
2022/08/04 02:57:30;;;;;;;3.92;2.47;;;;;;;21.79;54.58;98850.16;5176690;28;20233;-71
2022/08/04 03:00:21;;;;;;;3.93;2.57;;;;;;;21.71;54.50;98844.19;5178302;28;20049;-71
2022/08/04 03:03:46;;;;;;;2.85;2.33;;;;;;;21.65;54.93;98839.69;5179353;28;20060;-70
2022/08/04 03:07:05;;;;;;;4.47;2.70;;;;;;;21.63;54.37;98848.00;5181119;28;20072;-71
2022/08/04 03:10:09;;;;;;;4.07;2.60;;;;;;;21.28;55.34;98840.31;5183420;28;20067;-70
2022/08/04 03:13:20;;;;;;;5.28;2.70;;;;;;;21.44;55.13;98830.09;5182004;28;20042;-72
2022/08/04 03:16:41;;;;;;;4.75;2.35;;;;;;;21.37;55.35;98843.63;5181764;28;20053;-71
2022/08/04 03:20:05;;;;;;;3.17;2.58;;;;;;;21.50;55.33;98848.91;5183621;28;20101;-72
2022/08/04 03:23:33;;;;;;;4.45;2.63;;;;;;;21.40;54.88;98842.34;5181367;28;20076;-72
2022/08/04 03:26:51;;;;;;;5.90;2.70;;;;;;;21.26;55.31;98839.72;5183367;28;20061;-71
2022/08/04 03:30:06;;;;;;;5.57;2.70;;;;;;;21.31;55.55;98847.13;5180998;28;20053;-71
2022/08/04 03:33:16;;;;;;;4.07;2.70;;;;;;;21.26;55.55;98853.19;5181981;28;20435;-72
2022/08/04 03:36:13;;;;;;;7.30;2.70;;;;;;;21.36;55.57;98855.44;5172852;28;20056;-72
2022/08/04 03:39:27;;;;;;;3.85;2.53;;;;;;;21.31;55.27;98860.63;5182243;28;20050;-69
2022/08/04 03:42:38;;;;;;;6.47;3.17;;;;;;;21.30;55.30;98851.72;5184404;28;20133;-69
2022/08/04 03:46:04;;;;;;;6.13;2.88;;;;;;;21.32;55.28;98857.72;5179322;28;20053;-69
2022/08/04 03:49:25;;;;;;;9.48;2.70;;;;;;;21.39;55.40;98857.72;5181239;28;20077;-69
2022/08/04 03:53:08;;;;;;;3.95;3.13;;;;;;;21.24;55.35;98849.88;5183058;28;20153;-69
2022/08/04 03:56:32;;;;;;;3.35;2.80;;;;;;;21.15;55.90;98850.34;5182375;28;20635;-69
2022/08/04 03:59:41;;;;;;;5.13;2.90;;;;;;;21.09;55.81;98849.31;5178471;28;20045;-69
2022/08/04 04:02:59;;;;;;;5.43;2.83;;;;;;;21.28;55.64;98847.56;5182091;28;20521;-69
2022/08/04 04:06:07;;;;;;;3.67;2.72;;;;;;;21.21;55.85;98855.69;5182562;28;20053;-71
2022/08/04 04:09:38;;;;;;;5.63;2.83;;;;;;;21.22;55.87;98849.25;5181793;28;20065;-72
2022/08/04 04:13:14;;;;;;;3.72;2.95;;;;;;;21.41;55.35;98844.00;5181330;28;20115;-71
2022/08/04 04:16:27;;;;;;;3.72;2.95;;;;;;;21.51;54.85;98852.44;5180022;28;20511;-72
2022/08/04 04:19:51;;;;;;;4.95;3.65;;;;;;;21.46;54.92;98846.88;5180687;28;20061;-72
2022/08/04 04:23:06;;;;;;;4.65;3.00;;;;;;;21.60;55.09;98847.63;5180750;28;20085;-72
2022/08/04 04:26:32;;;;;;;5.70;2.90;;;;;;;21.67;54.58;98848.38;5181591;28;20127;-70
2022/08/04 04:30:00;;;;;;;4.22;3.15;;;;;;;21.67;54.41;98845.69;5177259;28;20056;-69
2022/08/04 04:33:06;;;;;;;3.95;2.63;;;;;;;21.73;54.12;98842.94;5175013;28;20053;-70
2022/08/04 04:36:16;;;;;;;5.63;2.90;;;;;;;21.65;54.26;98820.78;5175342;28;20061;-69
2022/08/04 04:39:16;;;;;;;4.72;2.83;;;;;;;21.71;55.18;98847.72;5180483;28;20049;-72
2022/08/04 04:42:29;;;;;;;5.28;2.72;;;;;;;21.78;55.12;98847.66;5180635;28;20571;-70
2022/08/04 04:45:28;;;;;;;3.70;2.60;;;;;;;21.96;53.51;98849.63;5193416;28;20492;-70
2022/08/04 04:48:40;;;;;;;5.53;3.00;;;;;;;22.05;53.47;98850.97;5168462;28;20058;-69
2022/08/04 04:51:54;;;;;;;3.97;2.72;;;;;;;22.16;53.29;98853.00;5180841;28;20069;-71
2022/08/04 04:54:55;;;;;;;3.25;2.53;;;;;;;22.13;53.86;98863.38;5184417;28;20203;-71
2022/08/04 04:57:49;;;;;;;3.75;2.80;;;;;;;22.15;53.26;98863.97;5163975;28;20112;-70
2022/08/04 05:01:06;;;;;;;3.35;2.83;;;;;;;22.11;54.06;98868.97;5164281;28;20088;-71
2022/08/04 05:04:20;;;;;;;3.78;2.75;;;;;;;21.91;54.96;98844.88;5180763;28;20169;-69
2022/08/04 05:07:22;;;;;;;;;;;;;;;21.97;55.34;98870.97;5184527;28;20053;-72
2022/08/04 05:10:29;;;;;;;6.60;3.22;;;;;;;22.27;53.33;98864.94;5182707;28;19935;-70
2022/08/04 05:13:33;;;;;;;4.82;2.67;;;;;;;22.57;52.42;98864.22;5183739;28;20053;-71
2022/08/04 05:16:46;;;;;;;4.07;2.78;;;;;;;22.60;52.08;98861.88;5170810;28;20042;-70
2022/08/04 05:19:49;;;;;;;3.28;2.42;;;;;;;22.78;51.91;98860.22;5171151;28;20053;-70
2022/08/04 05:22:46;;;;;;;3.78;2.53;;;;;;;22.93;51.09;98864.22;5173570;28;20088;-73
2022/08/04 05:25:43;;;;;;;4.53;2.42;;;;;;;23.11;50.99;98867.94;5181131;28;20084;-69
2022/08/04 05:28:53;;;;;;;3.38;2.17;;;;;;;23.29;50.19;98854.41;5176891;28;20061;-69
2022/08/04 05:31:50;;;;;;;3.92;2.22;;;;;;;23.35;49.96;98868.91;5173141;28;20061;-69
2022/08/04 05:34:51;;;;;;;5.55;2.65;;;;;;;23.35;50.01;98864.31;5172150;28;20085;-70
2022/08/04 05:37:43;;;;;;;7.95;2.63;;;;;;;23.43;49.84;98869.38;5173291;28;20057;-70
2022/08/04 05:40:34;;;;;;;5.10;2.50;;;;;;;23.48;49.95;98870.56;5184693;28;20068;-71
2022/08/04 05:43:25;;;;;;;6.72;3.13;;;;;;;23.52;49.71;98860.94;5162910;28;20058;-72
2022/08/04 05:46:16;;;;;;;7.00;2.65;;;;;;;23.51;49.24;98851.16;5172568;28;20056;-70
2022/08/04 05:49:08;;;;;;;4.05;2.63;;;;;;;23.72;48.68;98866.91;5183210;28;20052;-74
2022/08/04 05:52:01;;;;;;;6.85;2.65;;;;;;;23.91;48.67;98868.50;5170236;28;20050;-70
2022/08/04 05:54:52;;;;;;;6.68;2.55;;;;;;;23.80;49.26;98874.69;5172237;28;20065;-70
2022/08/04 05:57:43;;;;;;;6.85;2.80;;;;;;;23.74;49.67;98878.34;5173208;28;20796;-69
2022/08/04 06:00:34;;;;;;;5.30;2.60;;;;;;;23.85;49.35;98857.75;5175699;28;20129;-69
2022/08/04 06:03:33;;;;;;;9.60;3.03;;;;;;;23.95;49.05;98879.69;5182062;28;20052;-70
2022/08/04 06:06:24;;;;;;;5.78;2.63;;;;;;;24.05;49.19;98877.22;5168566;28;20555;-70
2022/08/04 06:09:17;;;;;;;5.97;2.65;;;;;;;24.03;49.31;98868.47;5180011;28;20500;-71
2022/08/04 06:12:22;;;;;;;7.93;2.67;;;;;;;24.12;48.96;98877.09;5176859;28;20056;-69
2022/08/04 06:15:17;;;;;;;3.63;2.60;;;;;;;24.25;49.85;98876.88;5176975;28;20065;-70
2022/08/04 06:18:09;;;;;;;10.32;2.88;;;;;;;24.57;48.96;98871.94;5164137;28;20073;-71
2022/08/04 06:21:27;;;;;;;4.60;2.30;;;;;;;24.71;48.49;98869.78;5159602;28;20413;-71
2022/08/04 06:24:19;;;;;;;6.32;2.72;;;;;;;25.27;47.04;98870.97;5161484;28;20489;-70
2022/08/04 06:27:10;;;;;;;8.95;2.88;;;;;;;25.14;47.43;98868.53;5162186;28;20061;-70
2022/08/04 06:30:01;;;;;;;4.93;2.45;;;;;;;25.26;46.67;98871.19;5162690;28;20058;-70
2022/08/04 06:32:56;;;;;;;6.82;2.30;;;;;;;25.36;46.07;98867.84;5165586;28;20057;-70
2022/08/04 06:35:55;;;;;;;7.07;2.47;;;;;;;25.72;45.86;98869.31;5182762;28;20288;-70
2022/08/04 06:38:45;;;;;;;4.30;2.58;;;;;;;25.82;44.75;98871.41;5182107;28;20180;-70
2022/08/04 06:41:50;;;;;;;4.70;1.70;;;;;;;25.93;44.18;98873.25;5180812;28;20057;-70
2022/08/04 06:45:01;;;;;;;6.22;2.30;;;;;;;26.25;43.29;98868.00;5182485;28;20140;-70
2022/08/04 06:47:53;;;;;;;4.10;2.10;;;;;;;26.50;43.03;98870.31;5172384;28;20069;-70
2022/08/04 06:50:47;;;;;;;3.42;1.80;;;;;;;26.45;43.27;98871.03;5161818;28;20046;-70
2022/08/04 06:53:58;;;;;;;7.47;1.90;;;;;;;26.50;42.52;98855.91;5162144;28;20050;-71
2022/08/04 06:56:50;;;;;;;6.55;2.20;;;;;;;26.71;42.90;98868.69;5162088;28;20560;-70
2022/08/04 06:59:43;;;;;;;4.70;1.98;;;;;;;27.02;42.51;98871.78;5163120;28;20097;-70
2022/08/04 07:02:47;;;;;;;3.58;2.35;;;;;;;27.26;41.04;98873.22;5181364;28;20104;-70
2022/08/04 07:05:39;;;;;;;5.78;1.70;;;;;;;27.41;40.60;98865.19;5182158;28;20567;-70
2022/08/04 07:08:30;;;;;;;7.65;2.13;;;;;;;27.63;40.62;98867.03;5167164;28;20054;-71
2022/08/04 07:11:20;;;;;;;3.42;1.83;;;;;;;27.66;40.15;98854.81;5161423;28;20058;-70
2022/08/04 07:14:11;;;;;;;5.95;1.73;;;;;;;27.85;40.86;98864.28;5161897;28;20061;-70
2022/08/04 07:17:03;;;;;;;3.47;1.95;;;;;;;28.04;40.51;98868.22;5161947;28;20073;-71
2022/08/04 07:19:55;;;;;;;3.97;2.20;;;;;;;28.38;39.69;98864.38;5161987;28;20500;-71
2022/08/04 07:22:48;;;;;;;6.78;2.03;;;;;;;28.74;38.91;98865.41;5162071;28;20050;-70
2022/08/04 07:25:39;;;;;;;6.10;1.98;;;;;;;29.23;38.55;98863.19;5161525;28;20274;-71
2022/08/04 07:28:49;;;;;;;2.72;1.80;;;;;;;29.85;37.97;98857.84;5162010;28;20104;-70
2022/08/04 07:31:39;;;;;;;2.60;2.03;;;;;;;31.18;35.44;98861.09;5181411;28;20053;-71
2022/08/04 07:34:31;;;;;;;2.67;1.90;;;;;;;32.25;32.98;98856.78;5181785;28;20424;-70
2022/08/04 07:37:24;;;;;;;2.47;1.70;;;;;;;33.09;31.84;98857.25;5177284;28;20069;-71
2022/08/04 07:40:29;;;;;;;4.68;1.85;;;;;;;33.77;31.29;98855.19;5176340;28;20274;-71
2022/08/04 07:43:20;;;;;;;5.95;2.00;;;;;;;34.20;30.97;98868.78;5179741;28;20057;-71
2022/08/04 07:46:10;;;;;;;4.68;1.80;;;;;;;34.34;28.81;98853.94;5161455;28;20086;-71
2022/08/04 07:49:01;;;;;;;2.55;1.45;;;;;;;34.87;27.77;98857.34;5161349;28;20200;-71
2022/08/04 07:51:53;;;;;;;5.00;1.85;;;;;;;34.98;29.27;98856.84;5162687;28;20057;-71
2022/08/04 07:54:43;;;;;;;7.25;1.80;;;;;;;35.64;28.94;98840.78;5165703;28;20516;-71
2022/08/04 07:57:34;;;;;;;3.88;1.95;;;;;;;35.26;27.34;98856.81;5165069;28;20057;-71
2022/08/04 08:00:31;;;;;;;5.43;1.80;;;;;;;36.08;28.05;98858.47;5164917;28;20074;-71
2022/08/04 08:03:22;;;;;;;6.68;1.60;;;;;;;36.44;26.55;98857.53;5164796;28;20058;-71
2022/08/04 08:06:13;;;;;;;4.07;1.80;;;;;;;36.80;25.62;98846.31;5164734;28;20062;-71
2022/08/04 08:09:23;;;;;;;3.15;1.50;;;;;;;37.21;24.86;98850.66;5165107;28;20526;-70
2022/08/04 08:12:13;;;;;;;2.50;1.40;;;;;;;37.34;24.73;98835.03;5166412;28;20054;-71
2022/08/04 08:15:24;;;;;;;6.85;1.90;;;;;;;37.49;25.28;98839.31;5185046;28;20079;-71
2022/08/04 08:18:15;;;;;;;2.53;1.73;;;;;;;37.11;24.81;98839.91;5183135;28;20077;-71
2022/08/04 08:21:06;;;;;;;3.75;1.40;;;;;;;37.77;24.18;98845.31;5165116;28;20050;-70
2022/08/04 08:23:56;;;;;;;4.72;1.73;;;;;;;38.48;22.82;98829.06;5164948;28;20058;-71
2022/08/04 08:26:46;;;;;;;2.78;1.58;;;;;;;38.82;24.12;98840.28;5167703;28;20097;-71
2022/08/04 08:29:38;;;;;;;3.95;2.00;;;;;;;39.20;22.79;98829.13;5184925;28;20103;-71
2022/08/04 08:32:28;;;;;;;6.95;1.65;;;;;;;38.78;23.26;98823.53;5163941;28;20602;-71
2022/08/04 08:35:22;;;;;;;12.10;1.90;;;;;;;39.22;22.05;98830.44;5182165;28;20068;-71
2022/08/04 08:38:16;;;;;;;5.28;2.72;;;;;;;39.57;22.96;98838.50;5184720;28;20547;-72
2022/08/04 08:41:41;;;;;;;2.00;1.67;;;;;;;40.24;21.25;98832.97;5193902;28;20042;-71
2022/08/04 08:44:37;;;;;;;;;;;;;;;40.10;22.60;98833.25;5165379;28;20425;-71
2022/08/04 08:47:45;;;;;;;5.93;1.83;;;;;;;39.94;23.46;98827.56;5164145;28;20631;-71
2022/08/04 08:51:14;;;;;;;3.05;1.67;;;;;;;39.86;22.14;98840.34;5163097;28;20061;-71
2022/08/04 08:54:35;;;;;;;2.05;1.75;;;;;;;39.70;21.73;98834.63;5164226;28;20057;-71
2022/08/04 08:57:44;;;;;;;1.85;1.70;;;;;;;39.88;22.21;98840.84;5164562;28;20066;-71
2022/08/04 09:01:05;;;;;;;3.58;1.60;;;;;;;40.33;21.14;98828.94;5171580;28;20060;-71
2022/08/04 09:04:34;;;;;;;2.45;1.85;;;;;;;39.48;22.78;98829.44;5182685;28;20234;-71
2022/08/04 09:07:58;;;;;;;3.17;1.70;;;;;;;40.70;21.78;98820.66;5184072;28;20054;-71
2022/08/04 09:10:57;;;;;;;8.27;1.90;;;;;;;40.63;22.58;98828.72;5183756;28;20050;-71
2022/08/04 09:13:55;;;;;;;3.05;1.60;;;;;;;40.85;21.40;98821.88;5184342;28;20093;-71
2022/08/04 09:16:55;;;;;;;5.15;1.35;;;;;;;40.89;21.08;98822.00;5163867;28;20061;-71
2022/08/04 09:19:56;;;;;;;3.53;1.67;;;;;;;41.00;21.18;98834.28;5168293;28;20241;-71
2022/08/04 09:22:53;;;;;;;2.65;1.60;;;;;;;40.91;21.77;98830.81;5183410;28;20054;-72
2022/08/04 09:25:57;;;;;;;3.60;1.55;;;;;;;41.22;20.24;98825.44;5182814;28;20061;-71
2022/08/04 09:29:00;;;;;;;4.00;1.52;;;;;;;39.24;21.46;98825.34;5183475;28;20085;-72
2022/08/04 09:32:09;;;;;;;1.80;1.70;;;;;;;40.80;22.41;98830.47;5179932;28;20065;-71
2022/08/04 09:35:39;;;;;;;3.25;1.70;;;;;;;41.15;20.99;98827.19;5182949;28;20471;-72
2022/08/04 09:39:00;;;;;;;5.07;1.85;;;;;;;40.94;19.87;98824.56;5182383;28;20061;-71
2022/08/04 09:42:18;;;;;;;4.70;1.60;;;;;;;40.76;21.34;98818.41;5182617;28;20054;-71
2022/08/04 09:45:26;;;;;;;7.88;1.80;;;;;;;41.69;20.88;98813.72;5166560;28;20073;-71
2022/08/04 09:48:42;;;;;;;4.70;1.67;;;;;;;41.80;20.36;98811.22;5162202;28;20093;-72
2022/08/04 09:51:44;;;;;;;2.33;1.65;;;;;;;41.72;19.44;98817.75;5162067;28;20121;-72
2022/08/04 09:54:56;;;;;;;2.45;1.75;;;;;;;41.58;20.62;98803.44;5162732;28;20545;-71
2022/08/04 09:57:56;;;;;;;2.00;1.40;;;;;;;41.99;19.84;98808.59;5163941;28;20065;-71
2022/08/04 10:00:59;;;;;;;5.32;1.80;;;;;;;41.84;20.02;98798.19;5182097;28;20128;-71
2022/08/04 10:03:53;;;;;;;2.47;1.60;;;;;;;42.06;20.54;98799.59;5182836;28;20164;-71
2022/08/04 10:07:02;;;;;;;6.30;1.70;;;;;;;42.50;18.78;98793.97;5183919;28;20199;-71
2022/08/04 10:10:18;;;;;;;3.17;1.60;;;;;;;42.64;18.47;98796.28;5182919;28;20103;-71
2022/08/04 10:13:14;;;;;;;3.88;1.58;;;;;;;42.39;18.03;98790.91;5172914;28;20461;-71
2022/08/04 10:16:33;;;;;;;2.72;1.67;;;;;;;42.67;18.02;98793.56;5173353;28;20369;-72
2022/08/04 10:19:31;;;;;;;10.20;5.18;;;;;;;42.32;18.60;98792.69;5182865;28;20084;-71
2022/08/04 10:22:36;;;;;;;2.78;2.40;;;;;;;42.16;18.99;98774.00;5182099;28;20314;-71
2022/08/04 10:26:20;;;;;;;3.15;2.40;;;;;;;42.04;19.90;98781.63;5182467;28;20051;-71
2022/08/04 10:29:26;;;;;;;1.60;1.50;;;;;;;41.03;19.29;98767.69;5162135;28;20536;-72
2022/08/04 10:32:44;;;;;;;14.65;9.13;;;;;;;41.41;18.75;98769.16;5182193;28;20073;-71
2022/08/04 10:35:42;;;;;;;7.40;3.17;;;;;;;41.94;19.04;98767.06;5182703;28;20050;-71
2022/08/04 10:38:40;;;;;;;1.73;1.63;;;;;;;41.97;19.39;98760.78;5183150;28;20053;-71
2022/08/04 10:41:48;;;;;;;2.50;1.85;;;;;;;41.42;20.20;98772.75;5181257;28;20076;-72
2022/08/04 10:45:18;;;;;;;4.45;1.85;;;;;;;41.00;19.44;98760.00;5194934;28;20129;-71
2022/08/04 10:48:25;;;;;;;2.47;1.67;;;;;;;40.63;19.77;98767.59;5182345;28;20057;-71
2022/08/04 10:51:40;;;;;;;5.70;4.20;;;;;;;41.24;20.60;98753.56;5166832;28;20077;-71
2022/08/04 10:54:56;;;;;;;3.50;1.55;;;;;;;41.51;20.64;98759.50;5162163;28;20057;-71
2022/08/04 10:57:52;;;;;;;8.25;1.70;;;;;;;41.86;19.24;98758.91;5162170;28;20547;-71
2022/08/04 11:00:44;;;;;;;2.78;1.65;;;;;;;41.67;19.00;98756.78;5162264;28;20082;-71
2022/08/04 11:03:55;;;;;;;;;;;;;;;41.45;19.99;98756.16;5162369;28;20094;-71
2022/08/04 11:06:46;;;;;;;3.90;1.70;;;;;;;41.32;18.59;98754.56;5160668;28;19921;-71
2022/08/04 11:09:38;;;;;;;2.25;1.77;;;;;;;40.16;19.65;98756.91;5161904;28;20060;-71
2022/08/04 11:12:30;;;;;;;3.75;1.63;;;;;;;39.96;21.07;98753.06;5161302;28;20061;-71
2022/08/04 11:15:35;;;;;;;2.75;1.58;;;;;;;40.83;19.96;98749.97;5169442;28;20137;-71
2022/08/04 11:18:37;;;;;;;1.55;1.45;;;;;;;41.11;18.42;98748.41;5181555;28;20060;-71
2022/08/04 11:21:32;;;;;;;2.22;1.55;;;;;;;41.26;21.40;98747.66;5181711;28;20135;-72
2022/08/04 11:24:46;;;;;;;2.95;1.70;;;;;;;41.40;19.58;98752.81;5182139;28;20054;-71
2022/08/04 11:27:43;;;;;;;2.50;1.70;;;;;;;40.88;20.09;98740.56;5182053;28;20049;-72
2022/08/04 11:30:50;;;;;;;3.65;1.45;;;;;;;40.39;21.08;98737.81;5171171;28;20631;-72
2022/08/04 11:33:51;;;;;;;3.38;1.60;;;;;;;40.23;19.97;98745.25;5165353;28;20481;-71
2022/08/04 11:36:51;;;;;;;3.45;1.45;;;;;;;39.95;20.41;98751.44;5167543;28;20054;-71
2022/08/04 11:40:01;;;;;;;1.92;1.60;;;;;;;40.07;21.34;98751.47;5171483;28;20429;-71
2022/08/04 11:42:58;;;;;;;2.00;1.80;;;;;;;38.73;21.65;98752.47;5165489;28;20050;-72
2022/08/04 11:45:54;;;;;;;1.70;1.60;;;;;;;38.74;20.42;98747.72;5183512;28;20152;-71
2022/08/04 11:48:55;;;;;;;3.45;1.83;;;;;;;37.93;22.64;98748.78;5185464;28;20077;-71
2022/08/04 11:51:46;;;;;;;2.75;1.60;;;;;;;39.10;21.31;98757.44;5185009;28;20053;-71
2022/08/04 11:54:39;;;;;;;3.00;1.73;;;;;;;39.24;21.07;98749.69;5181459;28;20077;-72
2022/08/04 11:57:29;;;;;;;1.77;1.67;;;;;;;40.08;19.65;98746.72;5165406;28;20161;-72
2022/08/04 12:00:30;;;;;;;4.85;2.00;;;;;;;39.61;20.25;98727.66;5185434;28;20057;-71
2022/08/04 12:03:38;;;;;;;4.07;1.92;;;;;;;39.64;20.82;98735.28;5185651;28;20145;-71
2022/08/04 12:06:48;;;;;;;3.78;1.65;;;;;;;38.53;21.43;98737.44;5185186;28;20212;-71
2022/08/04 12:10:02;;;;;;;5.90;2.03;;;;;;;38.27;21.72;98723.69;5183515;28;20057;-71
2022/08/04 12:13:07;;;;;;;3.00;1.95;;;;;;;37.54;22.15;98715.50;5165982;28;20413;-71
2022/08/04 12:16:19;;;;;;;2.15;1.95;;;;;;;38.20;22.29;98728.97;5184663;28;20061;-71
2022/08/04 12:19:36;;;;;;;4.90;1.75;;;;;;;38.96;22.18;98736.34;5184749;28;20493;-71
2022/08/04 12:22:50;;;;;;;1.98;1.83;;;;;;;38.64;21.22;98732.31;5183757;28;20053;-71
2022/08/04 12:25:46;;;;;;;1.90;1.50;;;;;;;38.02;21.66;98738.50;5185254;28;20060;-71
2022/08/04 12:28:39;;;;;;;2.60;1.88;;;;;;;38.66;21.95;98740.31;5176841;28;20497;-72
2022/08/04 12:31:54;;;;;;;1.85;1.70;;;;;;;38.96;21.27;98741.09;5183736;28;20046;-71
2022/08/04 12:34:56;;;;;;;3.33;1.60;;;;;;;38.84;20.50;98729.94;5183878;28;20076;-72
2022/08/04 12:38:03;;;;;;;5.77;1.60;;;;;;;38.75;21.17;98728.00;5184519;28;20060;-71
2022/08/04 12:41:01;;;;;;;4.57;2.00;;;;;;;38.17;21.24;98724.09;5184456;28;20280;-71
2022/08/04 12:43:54;;;;;;;4.18;1.90;;;;;;;38.20;21.48;98723.41;5181459;28;20054;-71
2022/08/04 12:46:45;;;;;;;1.90;1.80;;;;;;;38.44;21.29;98717.28;5184022;28;20117;-72
2022/08/04 12:49:40;;;;;;;2.42;1.67;;;;;;;38.60;21.79;98711.97;5184301;28;20196;-72
2022/08/04 12:52:46;;;;;;;2.33;1.83;;;;;;;38.76;21.08;98712.19;5184582;28;20057;-71
2022/08/04 12:55:53;;;;;;;5.63;2.60;;;;;;;38.26;21.26;98696.38;5184349;28;20189;-72
2022/08/04 12:58:53;;;;;;;1.92;1.80;;;;;;;38.02;21.75;98677.59;5164435;28;20060;-72
2022/08/04 13:01:48;;;;;;;3.47;1.92;;;;;;;38.35;21.77;98701.84;5177909;28;20109;-71
2022/08/04 13:05:04;;;;;;;4.05;2.08;;;;;;;38.26;22.19;98699.94;5184085;28;20432;-71
2022/08/04 13:07:56;;;;;;;2.17;1.98;;;;;;;38.52;21.62;98697.03;5183968;28;20155;-71
2022/08/04 13:10:51;;;;;;;2.78;1.60;;;;;;;38.45;21.55;98698.72;5183335;28;20046;-71
2022/08/04 13:13:43;;;;;;;3.95;1.98;;;;;;;38.47;21.55;98690.88;5182295;28;20056;-72
2022/08/04 13:16:34;;;;;;;5.18;2.13;;;;;;;38.69;21.21;98696.09;5178883;28;20429;-72
2022/08/04 13:19:26;;;;;;;2.75;1.90;;;;;;;38.39;22.02;98691.75;5183806;28;20057;-71
2022/08/04 13:22:28;;;;;;;2.33;1.92;;;;;;;38.38;21.96;98684.56;5183062;28;20452;-72
2022/08/04 13:25:19;;;;;;;2.17;1.98;;;;;;;38.15;21.46;98676.56;5181783;28;20487;-71
2022/08/04 13:28:33;;;;;;;3.03;1.90;;;;;;;38.29;21.69;98679.88;5163535;28;20061;-72
2022/08/04 13:31:26;;;;;;;2.40;1.67;;;;;;;38.10;21.11;98676.72;5181397;28;20064;-71
2022/08/04 13:34:26;;;;;;;3.53;1.83;;;;;;;37.89;22.50;98662.00;5183316;28;20061;-71
2022/08/04 13:37:18;;;;;;;4.13;1.83;;;;;;;37.82;22.49;98668.88;5183527;28;20060;-71
2022/08/04 13:40:12;;;;;;;5.90;2.00;;;;;;;37.87;22.37;98669.81;5182008;28;20111;-71
2022/08/04 13:43:03;;;;;;;4.47;2.00;;;;;;;37.98;22.73;98663.63;5182997;28;20204;-72
2022/08/04 13:46:18;;;;;;;1.75;1.60;;;;;;;38.04;22.74;98648.41;5163205;28;20144;-71
2022/08/04 13:49:18;;;;;;;3.10;1.70;;;;;;;38.33;22.65;98665.38;5162240;28;20116;-71
2022/08/04 13:52:28;;;;;;;4.45;2.08;;;;;;;37.61;22.71;98659.66;5162965;28;20066;-72
2022/08/04 13:55:22;;;;;;;2.63;2.00;;;;;;;37.95;22.62;98655.16;5163347;28;20061;-71
2022/08/04 13:58:22;;;;;;;2.15;1.95;;;;;;;37.45;22.74;98656.59;5162903;28;20057;-71
2022/08/04 14:01:23;;;;;;;6.03;1.90;;;;;;;37.90;22.64;98664.44;5161435;28;20180;-71
2022/08/04 14:04:26;;;;;;;5.03;2.10;;;;;;;37.95;22.65;98655.16;5163023;28;20158;-71
2022/08/04 14:07:17;;;;;;;7.22;2.00;;;;;;;37.85;22.04;98646.06;5162918;28;20058;-71
2022/08/04 14:10:12;;;;;;;3.60;1.98;;;;;;;37.74;22.91;98655.06;5161569;28;20073;-71
2022/08/04 14:13:04;;;;;;;6.40;1.75;;;;;;;38.06;22.51;98650.88;5165400;28;20523;-71
2022/08/04 14:15:55;;;;;;;2.78;2.30;;;;;;;37.89;22.37;98637.91;5182883;28;20060;-71
2022/08/04 14:19:00;;;;;;;2.88;2.00;;;;;;;38.14;23.43;98640.88;5182745;28;20516;-71
2022/08/04 14:21:51;;;;;;;2.45;1.85;;;;;;;37.99;22.39;98615.41;5182525;28;20437;-72